METAR AND TAF INFORMATION
METAR FOR EBFN
ADDS - METARS form results

(0753 UTC 23 January 2019)
Data provider http://aviationweather.gov/metar/data/
 
METAR text: EBFN 230735Z 05008KT 1800 -SN FEW003 BKN016 BKN060 M00/M01 Q0996 BLACKYLO YLO TEMPO AMB
Conditions at: EBFN (KOKSIJDE (BEL-AF, BE) observed 0735 UTC 23 January 2019
Temperature: 0.0°C (32°F)
Dewpoint: -1.0°C (30°F) [RH = 93%]
Pressure (altimeter): 29.41 inches Hg (996.0 mb)
Winds: from the NE (50 degrees) at 9 MPH (8 knots; 4.1 m/s)
Visibility: 1.12 miles (1.80 km)
Ceiling: 1600 feet AGL
Clouds: few clouds at 300 feet AGL
broken clouds at 1600 feet AGL
broken clouds at 6000 feet AGL
Weather: -SN  (light snow)

METAR text: EBFN 230725Z 05008KT 1800 -SN FEW003 BKN016 BKN060 M00/M01 Q0996 YLO YLO TEMPO AMB
Conditions at: EBFN (KOKSIJDE (BEL-AF, BE) observed 0725 UTC 23 January 2019
Temperature: 0.0°C (32°F)
Dewpoint: -1.0°C (30°F) [RH = 93%]
Pressure (altimeter): 29.41 inches Hg (996.0 mb)
Winds: from the NE (50 degrees) at 9 MPH (8 knots; 4.1 m/s)
Visibility: 1.12 miles (1.80 km)
Ceiling: 1600 feet AGL
Clouds: few clouds at 300 feet AGL
broken clouds at 1600 feet AGL
broken clouds at 6000 feet AGL
Weather: -SN  (light snow)

METAR text: EBFN 230722Z 05008KT 1000 -SN SCT003 BKN017 M00/M01 Q0996 AMB YLO TEMPO AMB
Conditions at: EBFN (KOKSIJDE (BEL-AF, BE) observed 0722 UTC 23 January 2019
Temperature: 0.0°C (32°F)
Dewpoint: -1.0°C (30°F) [RH = 93%]
Pressure (altimeter): 29.41 inches Hg (996.0 mb)
Winds: from the NE (50 degrees) at 9 MPH (8 knots; 4.1 m/s)
Visibility: 0.62 miles (1.00 km)
Ceiling: 1700 feet AGL
Clouds: scattered clouds at 300 feet AGL
broken clouds at 1700 feet AGL
Weather: -SN  (light snow)

METAR text: EBFN 230655Z 05008KT 1200 SN FEW003 BKN025 M00/M01 Q0996 AMB YLO TEMPO AMB
Conditions at: EBFN (KOKSIJDE (BEL-AF, BE) observed 0655 UTC 23 January 2019
Temperature: 0.0°C (32°F)
Dewpoint: -1.0°C (30°F) [RH = 93%]
Pressure (altimeter): 29.41 inches Hg (996.0 mb)
Winds: from the NE (50 degrees) at 9 MPH (8 knots; 4.1 m/s)
Visibility: 0.75 miles (1.21 km)
Ceiling: 2500 feet AGL
Clouds: few clouds at 300 feet AGL
broken clouds at 2500 feet AGL
Weather: SN  (moderate snow)

Forecast for: EBFN (KOKSIJDE (BEL-AF, BE)
Text: TAF EBFN 230541Z 2307/2316 06010KT 2000 BR OVC005
Forecast period: 0700 to 1100 UTC 23 January 2019
Forecast type: FROM: standard forecast or significant change
Winds: from the ENE (60 degrees) at 12 MPH (10 knots; 5.1 m/s)
Visibility: 1.24 miles (2.00 km)
Ceiling: 500 feet AGL
Clouds: overcast cloud deck at 500 feet AGL
Weather: BR  (mist)
Text: TEMPO 2307/2311 1000 -SN SCT002 OVC004
Forecast period: 0700 to 1100 UTC 23 January 2019
Forecast type: TEMPORARY: The following changes expected for less than half the time period
Visibility: 0.62 miles (1.00 km)
Ceiling: 400 feet AGL
Clouds: scattered clouds at 200 feet AGL
overcast cloud deck at 400 feet AGL
Weather: -SN  (light snow)
Text: BECMG 2311/2313 4000 BR SCT008 OVC010
Forecast period: 1100 to 1400 UTC 23 January 2019
Forecast type: BECOMING: Conditions expected to become as follows by 1300 UTC 23 January 2019
Winds: from the ENE (60 degrees) at 12 MPH (10 knots; 5.1 m/s)
Visibility: 2.49 miles (4.01 km)
Ceiling: 1000 feet AGL
Clouds: scattered clouds at 800 feet AGL
overcast cloud deck at 1000 feet AGL
Weather: BR  (mist)
Text: BECMG 2314/2316 04010KT SCT016 BKN018
Forecast period: 1400 to 1600 UTC 23 January 2019
Forecast type: BECOMING: Conditions expected to become as follows by 1600 UTC 23 January 2019
Winds: from the NE (40 degrees) at 12 MPH (10 knots; 5.1 m/s)
Visibility: 2.49 miles (4.01 km)
Ceiling: 1800 feet AGL
Clouds: scattered clouds at 1600 feet AGL
broken clouds at 1800 feet AGL
Weather: BR  (mist)

 AIRPORT MAP

 RUNWAY INFORMATION
Runway 11 Runway length 8786 ft Runway width 164 ft
Runway elevation 14 ft Runway displaced threshold 1526 ft Runway heading 108
Runway 29 Runway length 8786 ft Runway width 164 ft
Runway elevation 20 ft Runway displaced threshold 311 ft Runway heading 288

 AIRPORT FREQUENCIES
Type APP Name APP Frequency 122.5 MHZ
Type EMR Name SAR Frequency 123.1 MHZ
Type EMR Name SAR Frequency 568 MHZ
Type GND Name TAXI Frequency 122.1 MHZ
Type INFO Name BELGA INFO Frequency 129.325 MHZ
Type TWR Name TWR Frequency 122.1 MHZ

 AIRPORT NEAR NAVIGATION AIDS
Type VORTAC Name Koksy Frequency 114500 KHZ